sensor_id;sensor_type;location;lat;lon;timestamp;P1;durP1;ratioP1;P2;durP2;ratioP2
15482;SDS011;7843;50.330;7.312;2023-06-22T00:01:20;7.25;;;2.92;;
15482;SDS011;7843;50.330;7.312;2023-06-22T00:03:48;4.25;;;2.60;;
15482;SDS011;7843;50.330;7.312;2023-06-22T00:06:15;5.53;;;2.22;;
15482;SDS011;7843;50.330;7.312;2023-06-22T00:08:42;3.95;;;2.33;;
15482;SDS011;7843;50.330;7.312;2023-06-22T00:11:08;8.13;;;2.42;;
15482;SDS011;7843;50.330;7.312;2023-06-22T00:13:35;4.22;;;2.72;;
15482;SDS011;7843;50.330;7.312;2023-06-22T00:16:02;3.17;;;2.10;;
15482;SDS011;7843;50.330;7.312;2023-06-22T00:18:29;3.92;;;2.53;;
15482;SDS011;7843;50.330;7.312;2023-06-22T00:20:57;3.40;;;2.38;;
15482;SDS011;7843;50.330;7.312;2023-06-22T00:23:24;3.15;;;1.98;;
15482;SDS011;7843;50.330;7.312;2023-06-22T00:25:51;3.17;;;2.47;;
15482;SDS011;7843;50.330;7.312;2023-06-22T00:28:18;3.05;;;2.10;;
15482;SDS011;7843;50.330;7.312;2023-06-22T00:30:45;5.10;;;3.00;;
15482;SDS011;7843;50.330;7.312;2023-06-22T00:33:13;4.15;;;2.60;;
15482;SDS011;7843;50.330;7.312;2023-06-22T00:35:41;5.90;;;2.17;;
15482;SDS011;7843;50.330;7.312;2023-06-22T00:38:08;3.92;;;2.33;;
15482;SDS011;7843;50.330;7.312;2023-06-22T00:40:35;4.78;;;2.60;;
15482;SDS011;7843;50.330;7.312;2023-06-22T00:43:02;4.13;;;2.40;;
15482;SDS011;7843;50.330;7.312;2023-06-22T00:45:29;4.00;;;2.33;;
15482;SDS011;7843;50.330;7.312;2023-06-22T00:47:56;2.55;;;1.92;;
15482;SDS011;7843;50.330;7.312;2023-06-22T00:50:27;3.90;;;2.13;;
15482;SDS011;7843;50.330;7.312;2023-06-22T00:53:00;4.05;;;1.85;;
15482;SDS011;7843;50.330;7.312;2023-06-22T00:55:38;3.30;;;2.60;;
15482;SDS011;7843;50.330;7.312;2023-06-22T00:58:09;5.00;;;2.23;;
15482;SDS011;7843;50.330;7.312;2023-06-22T01:00:37;6.57;;;2.22;;
15482;SDS011;7843;50.330;7.312;2023-06-22T01:03:05;4.17;;;2.30;;
15482;SDS011;7843;50.330;7.312;2023-06-22T01:05:35;3.50;;;2.00;;
15482;SDS011;7843;50.330;7.312;2023-06-22T01:08:14;4.05;;;2.15;;
15482;SDS011;7843;50.330;7.312;2023-06-22T01:11:47;2.85;;;2.05;;
15482;SDS011;7843;50.330;7.312;2023-06-22T01:14:04;3.80;;;2.75;;
15482;SDS011;7843;50.330;7.312;2023-06-22T01:16:37;4.18;;;2.45;;
15482;SDS011;7843;50.330;7.312;2023-06-22T01:19:54;2.47;;;2.03;;
15482;SDS011;7843;50.330;7.312;2023-06-22T01:22:05;3.15;;;2.10;;
15482;SDS011;7843;50.330;7.312;2023-06-22T01:24:44;3.47;;;2.37;;
15482;SDS011;7843;50.330;7.312;2023-06-22T01:30:19;4.93;;;2.58;;
15482;SDS011;7843;50.330;7.312;2023-06-22T01:32:46;3.80;;;2.28;;
15482;SDS011;7843;50.330;7.312;2023-06-22T01:35:14;4.20;;;2.53;;
15482;SDS011;7843;50.330;7.312;2023-06-22T01:37:41;3.85;;;2.58;;
15482;SDS011;7843;50.330;7.312;2023-06-22T01:40:08;5.25;;;2.63;;
15482;SDS011;7843;50.330;7.312;2023-06-22T01:42:36;4.57;;;1.95;;
15482;SDS011;7843;50.330;7.312;2023-06-22T01:45:03;2.70;;;2.13;;
15482;SDS011;7843;50.330;7.312;2023-06-22T01:47:31;3.90;;;2.05;;
15482;SDS011;7843;50.330;7.312;2023-06-22T01:49:58;3.38;;;2.40;;
15482;SDS011;7843;50.330;7.312;2023-06-22T01:52:25;3.60;;;2.30;;
15482;SDS011;7843;50.330;7.312;2023-06-22T01:54:52;5.85;;;2.33;;
15482;SDS011;7843;50.330;7.312;2023-06-22T01:57:19;3.28;;;2.10;;
15482;SDS011;7843;50.330;7.312;2023-06-22T02:02:32;3.45;;;2.30;;
15482;SDS011;7843;50.330;7.312;2023-06-22T02:05:06;6.60;;;2.45;;
15482;SDS011;7843;50.330;7.312;2023-06-22T02:07:39;6.32;;;2.20;;
15482;SDS011;7843;50.330;7.312;2023-06-22T02:10:10;2.72;;;2.10;;
15482;SDS011;7843;50.330;7.312;2023-06-22T02:12:40;5.78;;;1.73;;
15482;SDS011;7843;50.330;7.312;2023-06-22T02:15:09;3.43;;;2.23;;
15482;SDS011;7843;50.330;7.312;2023-06-22T02:17:38;4.32;;;2.40;;
15482;SDS011;7843;50.330;7.312;2023-06-22T02:20:05;3.75;;;2.28;;
15482;SDS011;7843;50.330;7.312;2023-06-22T02:22:34;2.47;;;2.10;;
15482;SDS011;7843;50.330;7.312;2023-06-22T02:25:01;2.57;;;2.20;;
15482;SDS011;7843;50.330;7.312;2023-06-22T02:27:28;4.20;;;2.30;;
15482;SDS011;7843;50.330;7.312;2023-06-22T02:29:55;3.80;;;2.38;;
15482;SDS011;7843;50.330;7.312;2023-06-22T02:32:22;5.23;;;2.70;;
15482;SDS011;7843;50.330;7.312;2023-06-22T02:34:49;3.30;;;2.55;;
15482;SDS011;7843;50.330;7.312;2023-06-22T02:37:16;3.30;;;2.50;;
15482;SDS011;7843;50.330;7.312;2023-06-22T02:39:43;4.03;;;2.38;;
15482;SDS011;7843;50.330;7.312;2023-06-22T02:42:10;3.78;;;2.35;;
15482;SDS011;7843;50.330;7.312;2023-06-22T02:44:37;3.95;;;2.60;;
15482;SDS011;7843;50.330;7.312;2023-06-22T02:47:04;4.50;;;2.67;;
15482;SDS011;7843;50.330;7.312;2023-06-22T02:49:34;3.00;;;2.30;;
15482;SDS011;7843;50.330;7.312;2023-06-22T02:52:01;3.65;;;2.60;;
15482;SDS011;7843;50.330;7.312;2023-06-22T02:54:28;4.35;;;2.63;;
15482;SDS011;7843;50.330;7.312;2023-06-22T02:56:55;4.40;;;2.65;;
15482;SDS011;7843;50.330;7.312;2023-06-22T02:59:22;3.92;;;2.38;;
15482;SDS011;7843;50.330;7.312;2023-06-22T03:01:50;4.68;;;3.10;;
15482;SDS011;7843;50.330;7.312;2023-06-22T03:04:17;4.53;;;2.97;;
15482;SDS011;7843;50.330;7.312;2023-06-22T03:06:44;6.35;;;2.90;;
15482;SDS011;7843;50.330;7.312;2023-06-22T03:09:16;4.05;;;2.83;;
15482;SDS011;7843;50.330;7.312;2023-06-22T03:11:43;5.15;;;3.10;;
15482;SDS011;7843;50.330;7.312;2023-06-22T03:14:10;5.38;;;2.95;;
15482;SDS011;7843;50.330;7.312;2023-06-22T03:16:37;4.82;;;2.80;;
15482;SDS011;7843;50.330;7.312;2023-06-22T03:19:03;4.32;;;3.05;;
15482;SDS011;7843;50.330;7.312;2023-06-22T03:21:30;4.50;;;2.75;;
15482;SDS011;7843;50.330;7.312;2023-06-22T03:23:58;4.18;;;3.03;;
15482;SDS011;7843;50.330;7.312;2023-06-22T03:26:24;6.25;;;2.95;;
15482;SDS011;7843;50.330;7.312;2023-06-22T03:28:53;4.40;;;2.55;;
15482;SDS011;7843;50.330;7.312;2023-06-22T03:31:19;5.95;;;3.45;;
15482;SDS011;7843;50.330;7.312;2023-06-22T03:33:48;6.00;;;3.27;;
15482;SDS011;7843;50.330;7.312;2023-06-22T03:36:16;5.82;;;3.75;;
15482;SDS011;7843;50.330;7.312;2023-06-22T03:38:47;5.05;;;3.20;;
15482;SDS011;7843;50.330;7.312;2023-06-22T03:41:14;5.88;;;2.85;;
15482;SDS011;7843;50.330;7.312;2023-06-22T03:43:41;4.13;;;2.97;;
15482;SDS011;7843;50.330;7.312;2023-06-22T03:46:08;4.75;;;2.88;;
15482;SDS011;7843;50.330;7.312;2023-06-22T03:48:35;4.00;;;2.45;;
15482;SDS011;7843;50.330;7.312;2023-06-22T03:51:02;4.80;;;2.97;;
15482;SDS011;7843;50.330;7.312;2023-06-22T03:53:32;4.80;;;2.90;;
15482;SDS011;7843;50.330;7.312;2023-06-22T03:55:58;5.65;;;3.03;;
15482;SDS011;7843;50.330;7.312;2023-06-22T03:58:25;8.98;;;3.17;;
15482;SDS011;7843;50.330;7.312;2023-06-22T04:00:52;3.70;;;2.75;;
15482;SDS011;7843;50.330;7.312;2023-06-22T04:03:19;4.00;;;2.67;;
15482;SDS011;7843;50.330;7.312;2023-06-22T04:05:46;12.25;;;3.60;;
15482;SDS011;7843;50.330;7.312;2023-06-22T04:08:14;7.70;;;3.33;;
15482;SDS011;7843;50.330;7.312;2023-06-22T04:10:41;4.22;;;2.78;;
15482;SDS011;7843;50.330;7.312;2023-06-22T04:13:08;6.35;;;3.25;;
15482;SDS011;7843;50.330;7.312;2023-06-22T04:15:35;5.95;;;3.20;;
15482;SDS011;7843;50.330;7.312;2023-06-22T04:18:02;8.27;;;2.97;;
15482;SDS011;7843;50.330;7.312;2023-06-22T04:20:29;3.40;;;2.85;;
15482;SDS011;7843;50.330;7.312;2023-06-22T04:22:57;7.15;;;3.45;;
15482;SDS011;7843;50.330;7.312;2023-06-22T04:25:24;5.32;;;3.08;;
15482;SDS011;7843;50.330;7.312;2023-06-22T04:27:51;4.90;;;3.03;;
15482;SDS011;7843;50.330;7.312;2023-06-22T04:30:18;5.45;;;3.35;;
15482;SDS011;7843;50.330;7.312;2023-06-22T04:32:44;5.13;;;3.35;;
15482;SDS011;7843;50.330;7.312;2023-06-22T04:35:11;9.30;;;3.37;;
15482;SDS011;7843;50.330;7.312;2023-06-22T04:37:38;7.18;;;3.42;;
15482;SDS011;7843;50.330;7.312;2023-06-22T04:40:05;4.45;;;3.42;;
15482;SDS011;7843;50.330;7.312;2023-06-22T04:42:33;4.32;;;2.78;;
15482;SDS011;7843;50.330;7.312;2023-06-22T04:45:01;8.68;;;3.50;;
15482;SDS011;7843;50.330;7.312;2023-06-22T04:47:28;5.47;;;3.73;;
15482;SDS011;7843;50.330;7.312;2023-06-22T04:49:55;4.60;;;3.22;;
15482;SDS011;7843;50.330;7.312;2023-06-22T04:52:22;5.85;;;3.47;;
15482;SDS011;7843;50.330;7.312;2023-06-22T04:54:50;5.75;;;2.60;;
15482;SDS011;7843;50.330;7.312;2023-06-22T04:57:21;6.95;;;3.25;;
15482;SDS011;7843;50.330;7.312;2023-06-22T04:59:59;8.05;;;3.08;;
15482;SDS011;7843;50.330;7.312;2023-06-22T05:02:40;5.85;;;3.40;;
15482;SDS011;7843;50.330;7.312;2023-06-22T05:05:07;4.00;;;2.55;;
15482;SDS011;7843;50.330;7.312;2023-06-22T05:07:34;4.90;;;3.47;;
15482;SDS011;7843;50.330;7.312;2023-06-22T05:10:02;5.78;;;2.80;;
15482;SDS011;7843;50.330;7.312;2023-06-22T05:12:30;5.28;;;3.55;;
15482;SDS011;7843;50.330;7.312;2023-06-22T05:14:56;6.18;;;3.50;;
15482;SDS011;7843;50.330;7.312;2023-06-22T05:17:23;4.10;;;2.60;;
15482;SDS011;7843;50.330;7.312;2023-06-22T05:19:51;3.90;;;2.85;;
15482;SDS011;7843;50.330;7.312;2023-06-22T05:22:17;4.38;;;3.00;;
15482;SDS011;7843;50.330;7.312;2023-06-22T05:24:45;4.70;;;2.83;;
15482;SDS011;7843;50.330;7.312;2023-06-22T05:27:13;3.90;;;2.88;;
15482;SDS011;7843;50.330;7.312;2023-06-22T05:29:40;7.38;;;2.83;;
15482;SDS011;7843;50.330;7.312;2023-06-22T05:32:08;7.88;;;2.83;;
15482;SDS011;7843;50.330;7.312;2023-06-22T05:34:35;3.47;;;2.78;;
15482;SDS011;7843;50.330;7.312;2023-06-22T05:37:02;4.63;;;3.20;;
15482;SDS011;7843;50.330;7.312;2023-06-22T05:39:29;7.00;;;3.30;;
15482;SDS011;7843;50.330;7.312;2023-06-22T05:41:56;4.82;;;3.17;;
15482;SDS011;7843;50.330;7.312;2023-06-22T05:44:22;3.88;;;3.00;;
15482;SDS011;7843;50.330;7.312;2023-06-22T05:46:49;6.03;;;2.93;;
15482;SDS011;7843;50.330;7.312;2023-06-22T05:49:16;6.28;;;3.33;;
15482;SDS011;7843;50.330;7.312;2023-06-22T05:51:43;6.25;;;2.65;;
15482;SDS011;7843;50.330;7.312;2023-06-22T05:54:10;4.18;;;2.45;;
15482;SDS011;7843;50.330;7.312;2023-06-22T05:56:39;4.15;;;2.50;;
15482;SDS011;7843;50.330;7.312;2023-06-22T05:59:06;4.68;;;2.90;;
15482;SDS011;7843;50.330;7.312;2023-06-22T06:01:32;4.43;;;2.78;;
15482;SDS011;7843;50.330;7.312;2023-06-22T06:04:04;5.82;;;3.20;;
15482;SDS011;7843;50.330;7.312;2023-06-22T06:06:31;5.55;;;2.83;;
15482;SDS011;7843;50.330;7.312;2023-06-22T06:08:58;4.13;;;2.80;;
15482;SDS011;7843;50.330;7.312;2023-06-22T06:11:25;6.00;;;2.80;;
15482;SDS011;7843;50.330;7.312;2023-06-22T06:13:52;6.40;;;3.17;;
15482;SDS011;7843;50.330;7.312;2023-06-22T06:16:19;5.85;;;3.55;;
15482;SDS011;7843;50.330;7.312;2023-06-22T06:18:46;9.02;;;3.35;;
15482;SDS011;7843;50.330;7.312;2023-06-22T06:21:14;5.18;;;2.78;;
15482;SDS011;7843;50.330;7.312;2023-06-22T06:23:41;4.05;;;2.90;;
15482;SDS011;7843;50.330;7.312;2023-06-22T06:26:08;7.07;;;3.28;;
15482;SDS011;7843;50.330;7.312;2023-06-22T06:28:35;4.30;;;2.53;;
15482;SDS011;7843;50.330;7.312;2023-06-22T06:31:02;4.40;;;2.70;;
15482;SDS011;7843;50.330;7.312;2023-06-22T06:33:28;6.10;;;3.03;;
15482;SDS011;7843;50.330;7.312;2023-06-22T06:35:55;5.35;;;3.08;;
15482;SDS011;7843;50.330;7.312;2023-06-22T06:38:22;4.43;;;2.88;;
15482;SDS011;7843;50.330;7.312;2023-06-22T06:40:49;6.05;;;2.92;;
15482;SDS011;7843;50.330;7.312;2023-06-22T06:43:16;5.05;;;3.03;;
15482;SDS011;7843;50.330;7.312;2023-06-22T06:45:43;4.43;;;2.60;;
15482;SDS011;7843;50.330;7.312;2023-06-22T06:48:10;4.22;;;2.90;;
15482;SDS011;7843;50.330;7.312;2023-06-22T06:50:37;6.95;;;3.35;;
15482;SDS011;7843;50.330;7.312;2023-06-22T06:53:04;6.35;;;2.80;;
15482;SDS011;7843;50.330;7.312;2023-06-22T06:55:31;4.90;;;3.17;;
15482;SDS011;7843;50.330;7.312;2023-06-22T06:57:59;5.30;;;3.03;;
15482;SDS011;7843;50.330;7.312;2023-06-22T07:00:26;7.20;;;2.75;;
15482;SDS011;7843;50.330;7.312;2023-06-22T07:02:53;4.93;;;2.83;;
15482;SDS011;7843;50.330;7.312;2023-06-22T07:05:20;4.63;;;2.67;;
15482;SDS011;7843;50.330;7.312;2023-06-22T07:07:46;7.78;;;2.67;;
15482;SDS011;7843;50.330;7.312;2023-06-22T07:10:13;4.60;;;2.63;;
15482;SDS011;7843;50.330;7.312;2023-06-22T07:12:41;6.07;;;2.90;;
15482;SDS011;7843;50.330;7.312;2023-06-22T07:15:08;4.53;;;2.38;;
15482;SDS011;7843;50.330;7.312;2023-06-22T07:17:36;4.30;;;2.72;;
15482;SDS011;7843;50.330;7.312;2023-06-22T07:20:04;3.90;;;2.40;;
15482;SDS011;7843;50.330;7.312;2023-06-22T07:22:38;3.28;;;2.20;;
15482;SDS011;7843;50.330;7.312;2023-06-22T07:25:06;3.47;;;2.67;;
15482;SDS011;7843;50.330;7.312;2023-06-22T07:27:37;3.03;;;2.53;;
15482;SDS011;7843;50.330;7.312;2023-06-22T07:30:11;3.95;;;2.60;;
15482;SDS011;7843;50.330;7.312;2023-06-22T07:32:39;6.10;;;3.05;;
15482;SDS011;7843;50.330;7.312;2023-06-22T07:35:06;3.28;;;2.30;;
15482;SDS011;7843;50.330;7.312;2023-06-22T07:37:33;3.55;;;2.40;;
15482;SDS011;7843;50.330;7.312;2023-06-22T07:40:01;4.50;;;3.00;;
15482;SDS011;7843;50.330;7.312;2023-06-22T07:42:30;3.70;;;2.38;;
15482;SDS011;7843;50.330;7.312;2023-06-22T07:44:59;3.90;;;2.75;;
15482;SDS011;7843;50.330;7.312;2023-06-22T07:47:26;4.25;;;2.22;;
15482;SDS011;7843;50.330;7.312;2023-06-22T07:49:54;4.68;;;2.58;;
15482;SDS011;7843;50.330;7.312;2023-06-22T07:52:24;4.67;;;2.60;;
15482;SDS011;7843;50.330;7.312;2023-06-22T07:54:51;4.72;;;2.40;;
15482;SDS011;7843;50.330;7.312;2023-06-22T07:57:19;3.80;;;2.53;;
15482;SDS011;7843;50.330;7.312;2023-06-22T07:59:46;4.15;;;2.60;;
15482;SDS011;7843;50.330;7.312;2023-06-22T08:02:13;2.83;;;2.25;;
15482;SDS011;7843;50.330;7.312;2023-06-22T08:04:39;6.20;;;2.67;;
15482;SDS011;7843;50.330;7.312;2023-06-22T08:07:07;3.65;;;2.13;;
15482;SDS011;7843;50.330;7.312;2023-06-22T08:09:34;5.47;;;3.10;;
15482;SDS011;7843;50.330;7.312;2023-06-22T08:12:01;3.97;;;2.60;;
15482;SDS011;7843;50.330;7.312;2023-06-22T08:14:29;7.10;;;2.50;;
15482;SDS011;7843;50.330;7.312;2023-06-22T08:16:56;3.08;;;2.40;;
15482;SDS011;7843;50.330;7.312;2023-06-22T08:19:23;4.80;;;2.60;;
15482;SDS011;7843;50.330;7.312;2023-06-22T08:21:49;4.90;;;2.90;;
15482;SDS011;7843;50.330;7.312;2023-06-22T08:24:16;3.42;;;2.63;;
15482;SDS011;7843;50.330;7.312;2023-06-22T08:26:43;5.47;;;2.70;;
15482;SDS011;7843;50.330;7.312;2023-06-22T08:29:09;3.88;;;2.50;;
15482;SDS011;7843;50.330;7.312;2023-06-22T08:31:36;3.42;;;2.60;;
15482;SDS011;7843;50.330;7.312;2023-06-22T08:34:03;3.35;;;2.38;;
15482;SDS011;7843;50.330;7.312;2023-06-22T08:36:30;3.38;;;2.60;;
15482;SDS011;7843;50.330;7.312;2023-06-22T08:39:01;5.57;;;2.60;;
15482;SDS011;7843;50.330;7.312;2023-06-22T08:41:29;3.63;;;2.42;;
15482;SDS011;7843;50.330;7.312;2023-06-22T08:43:57;4.55;;;2.58;;
15482;SDS011;7843;50.330;7.312;2023-06-22T08:46:23;3.57;;;2.37;;
15482;SDS011;7843;50.330;7.312;2023-06-22T08:48:56;3.28;;;2.67;;
15482;SDS011;7843;50.330;7.312;2023-06-22T08:51:24;3.17;;;2.65;;
15482;SDS011;7843;50.330;7.312;2023-06-22T08:53:50;4.45;;;2.60;;
15482;SDS011;7843;50.330;7.312;2023-06-22T08:56:17;4.13;;;2.38;;
15482;SDS011;7843;50.330;7.312;2023-06-22T08:58:44;6.17;;;2.80;;
15482;SDS011;7843;50.330;7.312;2023-06-22T09:01:11;4.07;;;2.47;;
15482;SDS011;7843;50.330;7.312;2023-06-22T09:03:38;3.55;;;2.40;;
15482;SDS011;7843;50.330;7.312;2023-06-22T09:06:05;3.45;;;2.22;;
15482;SDS011;7843;50.330;7.312;2023-06-22T09:08:32;4.35;;;2.63;;
15482;SDS011;7843;50.330;7.312;2023-06-22T09:10:58;3.60;;;2.47;;
15482;SDS011;7843;50.330;7.312;2023-06-22T09:13:25;4.47;;;2.72;;
15482;SDS011;7843;50.330;7.312;2023-06-22T09:15:52;6.53;;;2.90;;
15482;SDS011;7843;50.330;7.312;2023-06-22T09:18:19;3.85;;;2.67;;
15482;SDS011;7843;50.330;7.312;2023-06-22T09:20:45;2.95;;;2.47;;
15482;SDS011;7843;50.330;7.312;2023-06-22T09:23:12;4.07;;;2.38;;
15482;SDS011;7843;50.330;7.312;2023-06-22T09:25:39;4.57;;;2.58;;
15482;SDS011;7843;50.330;7.312;2023-06-22T09:28:06;3.78;;;2.30;;
15482;SDS011;7843;50.330;7.312;2023-06-22T09:30:33;3.58;;;2.67;;
15482;SDS011;7843;50.330;7.312;2023-06-22T09:33:00;3.58;;;2.25;;
15482;SDS011;7843;50.330;7.312;2023-06-22T09:35:27;4.45;;;2.60;;
15482;SDS011;7843;50.330;7.312;2023-06-22T09:37:54;3.10;;;2.10;;
15482;SDS011;7843;50.330;7.312;2023-06-22T09:40:21;3.97;;;2.77;;
15482;SDS011;7843;50.330;7.312;2023-06-22T09:42:47;3.13;;;2.53;;
15482;SDS011;7843;50.330;7.312;2023-06-22T09:45:14;4.30;;;2.50;;
15482;SDS011;7843;50.330;7.312;2023-06-22T09:47:41;3.58;;;2.30;;
15482;SDS011;7843;50.330;7.312;2023-06-22T09:50:08;4.60;;;2.70;;
15482;SDS011;7843;50.330;7.312;2023-06-22T09:52:36;3.47;;;2.45;;
15482;SDS011;7843;50.330;7.312;2023-06-22T09:55:05;3.70;;;2.20;;
15482;SDS011;7843;50.330;7.312;2023-06-22T09:57:32;4.82;;;3.35;;
15482;SDS011;7843;50.330;7.312;2023-06-22T09:59:59;3.88;;;2.60;;
15482;SDS011;7843;50.330;7.312;2023-06-22T10:02:26;4.15;;;2.67;;
15482;SDS011;7843;50.330;7.312;2023-06-22T10:04:52;3.70;;;2.70;;
15482;SDS011;7843;50.330;7.312;2023-06-22T10:07:19;4.38;;;2.58;;
15482;SDS011;7843;50.330;7.312;2023-06-22T10:09:46;3.80;;;2.63;;
15482;SDS011;7843;50.330;7.312;2023-06-22T10:12:13;4.75;;;2.78;;
15482;SDS011;7843;50.330;7.312;2023-06-22T10:14:39;4.72;;;2.80;;
15482;SDS011;7843;50.330;7.312;2023-06-22T10:17:06;3.40;;;2.30;;
15482;SDS011;7843;50.330;7.312;2023-06-22T10:19:33;5.50;;;2.92;;
15482;SDS011;7843;50.330;7.312;2023-06-22T10:22:03;4.03;;;2.80;;
15482;SDS011;7843;50.330;7.312;2023-06-22T10:24:31;4.15;;;2.83;;
15482;SDS011;7843;50.330;7.312;2023-06-22T10:26:57;4.60;;;2.67;;
15482;SDS011;7843;50.330;7.312;2023-06-22T10:29:24;4.45;;;2.67;;
15482;SDS011;7843;50.330;7.312;2023-06-22T10:31:51;3.53;;;2.47;;
15482;SDS011;7843;50.330;7.312;2023-06-22T10:34:18;6.85;;;2.63;;
15482;SDS011;7843;50.330;7.312;2023-06-22T10:36:44;3.92;;;3.08;;
15482;SDS011;7843;50.330;7.312;2023-06-22T10:39:14;4.75;;;2.95;;
15482;SDS011;7843;50.330;7.312;2023-06-22T10:41:41;4.47;;;2.85;;
15482;SDS011;7843;50.330;7.312;2023-06-22T10:44:08;4.63;;;2.87;;
15482;SDS011;7843;50.330;7.312;2023-06-22T10:46:34;6.55;;;3.03;;
15482;SDS011;7843;50.330;7.312;2023-06-22T10:49:01;5.78;;;3.38;;
15482;SDS011;7843;50.330;7.312;2023-06-22T10:51:28;4.63;;;3.03;;
15482;SDS011;7843;50.330;7.312;2023-06-22T10:53:55;6.13;;;3.50;;
15482;SDS011;7843;50.330;7.312;2023-06-22T10:56:22;3.65;;;2.75;;
15482;SDS011;7843;50.330;7.312;2023-06-22T10:58:48;4.43;;;2.97;;
15482;SDS011;7843;50.330;7.312;2023-06-22T11:01:15;4.43;;;3.20;;
15482;SDS011;7843;50.330;7.312;2023-06-22T11:03:51;5.00;;;3.40;;
15482;SDS011;7843;50.330;7.312;2023-06-22T11:06:18;4.70;;;3.22;;
15482;SDS011;7843;50.330;7.312;2023-06-22T11:08:45;4.68;;;3.17;;
15482;SDS011;7843;50.330;7.312;2023-06-22T11:11:13;5.27;;;3.50;;
15482;SDS011;7843;50.330;7.312;2023-06-22T11:13:41;4.00;;;2.92;;
15482;SDS011;7843;50.330;7.312;2023-06-22T11:16:08;5.43;;;3.47;;
15482;SDS011;7843;50.330;7.312;2023-06-22T11:18:34;5.22;;;3.10;;
15482;SDS011;7843;50.330;7.312;2023-06-22T11:21:01;6.00;;;3.50;;
15482;SDS011;7843;50.330;7.312;2023-06-22T11:23:28;3.80;;;2.90;;
15482;SDS011;7843;50.330;7.312;2023-06-22T11:25:55;6.25;;;3.38;;
15482;SDS011;7843;50.330;7.312;2023-06-22T11:28:22;6.63;;;3.00;;
15482;SDS011;7843;50.330;7.312;2023-06-22T11:30:48;5.47;;;2.95;;
15482;SDS011;7843;50.330;7.312;2023-06-22T11:33:15;8.35;;;3.30;;
15482;SDS011;7843;50.330;7.312;2023-06-22T11:35:42;3.90;;;2.42;;
15482;SDS011;7843;50.330;7.312;2023-06-22T11:38:09;6.07;;;3.03;;
15482;SDS011;7843;50.330;7.312;2023-06-22T11:40:36;6.70;;;2.75;;
15482;SDS011;7843;50.330;7.312;2023-06-22T11:43:02;5.38;;;3.35;;
15482;SDS011;7843;50.330;7.312;2023-06-22T11:45:29;5.93;;;3.60;;
15482;SDS011;7843;50.330;7.312;2023-06-22T11:47:56;4.65;;;3.30;;
15482;SDS011;7843;50.330;7.312;2023-06-22T11:50:22;3.47;;;2.70;;
15482;SDS011;7843;50.330;7.312;2023-06-22T11:52:49;7.15;;;2.80;;
15482;SDS011;7843;50.330;7.312;2023-06-22T11:55:16;7.10;;;2.75;;
15482;SDS011;7843;50.330;7.312;2023-06-22T11:57:56;3.25;;;2.33;;
15482;SDS011;7843;50.330;7.312;2023-06-22T12:00:26;3.35;;;2.58;;
15482;SDS011;7843;50.330;7.312;2023-06-22T12:02:55;4.95;;;2.60;;
15482;SDS011;7843;50.330;7.312;2023-06-22T12:05:23;5.45;;;2.00;;
15482;SDS011;7843;50.330;7.312;2023-06-22T12:07:52;2.40;;;1.92;;
15482;SDS011;7843;50.330;7.312;2023-06-22T12:10:21;3.42;;;2.15;;
15482;SDS011;7843;50.330;7.312;2023-06-22T12:12:48;2.85;;;1.83;;
15482;SDS011;7843;50.330;7.312;2023-06-22T12:15:15;4.07;;;1.80;;
15482;SDS011;7843;50.330;7.312;2023-06-22T12:17:42;3.75;;;1.90;;
15482;SDS011;7843;50.330;7.312;2023-06-22T12:20:09;3.00;;;2.05;;
15482;SDS011;7843;50.330;7.312;2023-06-22T12:22:36;2.22;;;1.63;;
15482;SDS011;7843;50.330;7.312;2023-06-22T12:25:04;2.78;;;1.50;;
15482;SDS011;7843;50.330;7.312;2023-06-22T12:27:31;2.85;;;1.60;;
15482;SDS011;7843;50.330;7.312;2023-06-22T12:29:57;1.33;;;1.13;;
15482;SDS011;7843;50.330;7.312;2023-06-22T12:32:24;2.58;;;1.73;;
15482;SDS011;7843;50.330;7.312;2023-06-22T12:34:51;3.45;;;2.10;;
15482;SDS011;7843;50.330;7.312;2023-06-22T12:37:18;4.50;;;1.90;;
15482;SDS011;7843;50.330;7.312;2023-06-22T12:39:45;3.40;;;2.15;;
15482;SDS011;7843;50.330;7.312;2023-06-22T12:42:12;3.65;;;1.83;;
15482;SDS011;7843;50.330;7.312;2023-06-22T12:44:38;3.50;;;1.73;;
15482;SDS011;7843;50.330;7.312;2023-06-22T12:47:06;2.28;;;1.70;;
15482;SDS011;7843;50.330;7.312;2023-06-22T12:49:33;11.85;;;1.85;;
15482;SDS011;7843;50.330;7.312;2023-06-22T12:52:01;2.85;;;1.95;;
15482;SDS011;7843;50.330;7.312;2023-06-22T12:54:28;6.35;;;2.15;;
15482;SDS011;7843;50.330;7.312;2023-06-22T12:56:56;2.42;;;1.95;;
15482;SDS011;7843;50.330;7.312;2023-06-22T12:59:23;4.47;;;2.17;;
15482;SDS011;7843;50.330;7.312;2023-06-22T13:01:50;3.33;;;2.38;;
15482;SDS011;7843;50.330;7.312;2023-06-22T13:04:16;4.57;;;2.83;;
15482;SDS011;7843;50.330;7.312;2023-06-22T13:06:44;3.45;;;2.13;;
15482;SDS011;7843;50.330;7.312;2023-06-22T13:09:14;5.90;;;2.75;;
15482;SDS011;7843;50.330;7.312;2023-06-22T13:11:45;5.63;;;2.13;;
15482;SDS011;7843;50.330;7.312;2023-06-22T13:14:12;2.72;;;2.30;;
15482;SDS011;7843;50.330;7.312;2023-06-22T13:16:39;4.13;;;2.85;;
15482;SDS011;7843;50.330;7.312;2023-06-22T13:19:05;3.13;;;2.30;;
15482;SDS011;7843;50.330;7.312;2023-06-22T13:21:33;5.13;;;2.92;;
15482;SDS011;7843;50.330;7.312;2023-06-22T13:24:00;4.05;;;2.67;;
15482;SDS011;7843;50.330;7.312;2023-06-22T13:26:27;3.17;;;2.40;;
15482;SDS011;7843;50.330;7.312;2023-06-22T13:28:54;4.15;;;2.25;;
15482;SDS011;7843;50.330;7.312;2023-06-22T13:31:21;7.68;;;2.70;;
15482;SDS011;7843;50.330;7.312;2023-06-22T13:33:48;3.72;;;2.10;;
15482;SDS011;7843;50.330;7.312;2023-06-22T13:36:18;5.13;;;2.92;;
15482;SDS011;7843;50.330;7.312;2023-06-22T13:38:45;4.07;;;2.45;;
15482;SDS011;7843;50.330;7.312;2023-06-22T13:41:12;5.25;;;2.65;;
15482;SDS011;7843;50.330;7.312;2023-06-22T13:43:39;3.47;;;2.58;;
15482;SDS011;7843;50.330;7.312;2023-06-22T13:46:06;4.50;;;3.00;;
15482;SDS011;7843;50.330;7.312;2023-06-22T13:48:32;3.72;;;2.35;;
15482;SDS011;7843;50.330;7.312;2023-06-22T13:50:59;6.63;;;2.83;;
15482;SDS011;7843;50.330;7.312;2023-06-22T13:53:26;4.60;;;2.80;;
15482;SDS011;7843;50.330;7.312;2023-06-22T13:55:52;5.90;;;2.67;;
15482;SDS011;7843;50.330;7.312;2023-06-22T13:58:19;3.28;;;2.50;;
15482;SDS011;7843;50.330;7.312;2023-06-22T14:00:46;3.57;;;2.67;;
15482;SDS011;7843;50.330;7.312;2023-06-22T14:03:13;10.17;;;3.30;;
15482;SDS011;7843;50.330;7.312;2023-06-22T14:05:42;2.80;;;1.88;;
15482;SDS011;7843;50.330;7.312;2023-06-22T14:08:09;1.73;;;0.85;;
15482;SDS011;7843;50.330;7.312;2023-06-22T14:10:41;2.20;;;1.42;;
15482;SDS011;7843;50.330;7.312;2023-06-22T14:13:07;0.13;;;0.13;;
15482;SDS011;7843;50.330;7.312;2023-06-22T14:15:34;0.20;;;0.20;;
15482;SDS011;7843;50.330;7.312;2023-06-22T14:18:01;1.00;;;0.90;;
15482;SDS011;7843;50.330;7.312;2023-06-22T14:20:28;0.60;;;0.30;;
15482;SDS011;7843;50.330;7.312;2023-06-22T14:22:55;0.20;;;0.20;;
15482;SDS011;7843;50.330;7.312;2023-06-22T14:25:21;0.10;;;0.10;;
15482;SDS011;7843;50.330;7.312;2023-06-22T14:27:48;0.00;;;0.00;;
15482;SDS011;7843;50.330;7.312;2023-06-22T14:30:15;0.10;;;0.10;;
15482;SDS011;7843;50.330;7.312;2023-06-22T14:32:43;0.40;;;0.40;;
15482;SDS011;7843;50.330;7.312;2023-06-22T14:35:10;0.10;;;0.10;;
15482;SDS011;7843;50.330;7.312;2023-06-22T14:37:36;0.00;;;0.00;;
15482;SDS011;7843;50.330;7.312;2023-06-22T14:40:03;0.10;;;0.10;;
15482;SDS011;7843;50.330;7.312;2023-06-22T14:42:31;0.10;;;0.10;;
15482;SDS011;7843;50.330;7.312;2023-06-22T14:44:57;0.90;;;0.27;;
15482;SDS011;7843;50.330;7.312;2023-06-22T14:47:24;0.60;;;0.60;;
15482;SDS011;7843;50.330;7.312;2023-06-22T14:49:51;0.10;;;0.10;;
15482;SDS011;7843;50.330;7.312;2023-06-22T14:52:17;0.45;;;0.45;;
15482;SDS011;7843;50.330;7.312;2023-06-22T14:54:44;0.10;;;0.10;;
15482;SDS011;7843;50.330;7.312;2023-06-22T14:57:11;0.50;;;0.50;;
15482;SDS011;7843;50.330;7.312;2023-06-22T14:59:38;0.65;;;0.65;;
15482;SDS011;7843;50.330;7.312;2023-06-22T15:02:06;2.20;;;0.30;;
15482;SDS011;7843;50.330;7.312;2023-06-22T15:04:33;0.10;;;0.10;;
15482;SDS011;7843;50.330;7.312;2023-06-22T15:07:01;0.20;;;0.20;;
15482;SDS011;7843;50.330;7.312;2023-06-22T15:09:28;0.13;;;0.13;;